sensor_id;sensor_type;location;lat;lon;timestamp;P1;durP1;ratioP1;P2;durP2;ratioP2
79401;SDS011;68857;47.916;106.940;2024-03-22T00:00:42;23.02;;;10.10;;
79401;SDS011;68857;47.916;106.940;2024-03-22T00:03:08;21.17;;;9.82;;
79401;SDS011;68857;47.916;106.940;2024-03-22T00:08:01;22.20;;;10.75;;
79401;SDS011;68857;47.916;106.940;2024-03-22T00:10:28;22.58;;;10.82;;
79401;SDS011;68857;47.916;106.940;2024-03-22T00:12:55;23.33;;;11.18;;
79401;SDS011;68857;47.916;106.940;2024-03-22T00:17:48;27.23;;;11.85;;
79401;SDS011;68857;47.916;106.940;2024-03-22T00:22:40;22.25;;;9.95;;
79401;SDS011;68857;47.916;106.940;2024-03-22T00:25:08;20.63;;;10.88;;
79401;SDS011;68857;47.916;106.940;2024-03-22T00:27:34;21.38;;;10.73;;
79401;SDS011;68857;47.916;106.940;2024-03-22T00:30:01;26.85;;;11.57;;
79401;SDS011;68857;47.916;106.940;2024-03-22T00:32:28;22.23;;;9.98;;
79401;SDS011;68857;47.916;106.940;2024-03-22T00:34:54;21.80;;;9.48;;
79401;SDS011;68857;47.916;106.940;2024-03-22T00:39:47;25.55;;;12.52;;
79401;SDS011;68857;47.916;106.940;2024-03-22T00:44:40;26.38;;;10.65;;
79401;SDS011;68857;47.916;106.940;2024-03-22T00:49:33;25.02;;;11.52;;
79401;SDS011;68857;47.916;106.940;2024-03-22T00:52:00;28.90;;;12.82;;
79401;SDS011;68857;47.916;106.940;2024-03-22T00:54:26;26.58;;;12.82;;
79401;SDS011;68857;47.916;106.940;2024-03-22T00:59:19;26.67;;;12.98;;
79401;SDS011;68857;47.916;106.940;2024-03-22T01:01:46;23.50;;;10.82;;
79401;SDS011;68857;47.916;106.940;2024-03-22T01:04:13;30.38;;;12.05;;
79401;SDS011;68857;47.916;106.940;2024-03-22T01:06:39;23.38;;;11.15;;
79401;SDS011;68857;47.916;106.940;2024-03-22T01:11:33;27.13;;;10.15;;
79401;SDS011;68857;47.916;106.940;2024-03-22T01:13:59;25.35;;;11.50;;
79401;SDS011;68857;47.916;106.940;2024-03-22T01:16:26;27.23;;;12.35;;
79401;SDS011;68857;47.916;106.940;2024-03-22T01:18:53;28.45;;;10.98;;
79401;SDS011;68857;47.916;106.940;2024-03-22T01:23:53;27.02;;;14.05;;
79401;SDS011;68857;47.916;106.940;2024-03-22T01:26:19;31.58;;;13.43;;
79401;SDS011;68857;47.916;106.940;2024-03-22T01:28:46;33.20;;;14.57;;
79401;SDS011;68857;47.916;106.940;2024-03-22T01:31:13;37.20;;;15.20;;
79401;SDS011;68857;47.916;106.940;2024-03-22T01:33:39;33.97;;;16.35;;
79401;SDS011;68857;47.916;106.940;2024-03-22T01:38:32;35.60;;;15.77;;
79401;SDS011;68857;47.916;106.940;2024-03-22T01:40:59;34.38;;;17.83;;
79401;SDS011;68857;47.916;106.940;2024-03-22T01:43:26;41.17;;;17.55;;
79401;SDS011;68857;47.916;106.940;2024-03-22T01:45:52;35.78;;;16.00;;
79401;SDS011;68857;47.916;106.940;2024-03-22T01:48:19;33.33;;;15.48;;
79401;SDS011;68857;47.916;106.940;2024-03-22T01:50:46;36.35;;;15.77;;
79401;SDS011;68857;47.916;106.940;2024-03-22T01:53:13;39.40;;;18.65;;
79401;SDS011;68857;47.916;106.940;2024-03-22T01:55:40;37.55;;;16.83;;
79401;SDS011;68857;47.916;106.940;2024-03-22T01:58:06;37.13;;;16.58;;
79401;SDS011;68857;47.916;106.940;2024-03-22T02:00:33;41.28;;;16.23;;
79401;SDS011;68857;47.916;106.940;2024-03-22T02:03:00;30.52;;;14.38;;
79401;SDS011;68857;47.916;106.940;2024-03-22T02:05:26;32.83;;;15.27;;
79401;SDS011;68857;47.916;106.940;2024-03-22T02:07:53;34.42;;;15.00;;
79401;SDS011;68857;47.916;106.940;2024-03-22T02:10:21;42.55;;;17.00;;
79401;SDS011;68857;47.916;106.940;2024-03-22T02:12:48;38.42;;;18.30;;
79401;SDS011;68857;47.916;106.940;2024-03-22T02:15:15;35.53;;;17.83;;
79401;SDS011;68857;47.916;106.940;2024-03-22T02:17:41;31.73;;;13.73;;
79401;SDS011;68857;47.916;106.940;2024-03-22T02:20:08;33.78;;;15.05;;
79401;SDS011;68857;47.916;106.940;2024-03-22T02:22:37;33.40;;;11.85;;
79401;SDS011;68857;47.916;106.940;2024-03-22T02:25:04;35.47;;;11.95;;
79401;SDS011;68857;47.916;106.940;2024-03-22T02:27:32;39.20;;;13.00;;
79401;SDS011;68857;47.916;106.940;2024-03-22T02:29:59;41.63;;;12.45;;
79401;SDS011;68857;47.916;106.940;2024-03-22T02:32:27;43.60;;;11.65;;
79401;SDS011;68857;47.916;106.940;2024-03-22T02:34:54;48.90;;;15.68;;
79401;SDS011;68857;47.916;106.940;2024-03-22T02:37:20;51.50;;;16.52;;
79401;SDS011;68857;47.916;106.940;2024-03-22T02:39:47;53.65;;;12.88;;
79401;SDS011;68857;47.916;106.940;2024-03-22T02:42:14;41.00;;;11.68;;
79401;SDS011;68857;47.916;106.940;2024-03-22T02:44:40;38.88;;;12.73;;
79401;SDS011;68857;47.916;106.940;2024-03-22T02:47:10;28.65;;;10.73;;
79401;SDS011;68857;47.916;106.940;2024-03-22T02:49:39;27.92;;;10.48;;
79401;SDS011;68857;47.916;106.940;2024-03-22T02:52:06;28.52;;;9.88;;
79401;SDS011;68857;47.916;106.940;2024-03-22T02:54:32;26.15;;;10.55;;
79401;SDS011;68857;47.916;106.940;2024-03-22T02:56:59;23.33;;;8.73;;
79401;SDS011;68857;47.916;106.940;2024-03-22T02:59:27;26.30;;;9.00;;
79401;SDS011;68857;47.916;106.940;2024-03-22T03:01:54;24.35;;;8.80;;
79401;SDS011;68857;47.916;106.940;2024-03-22T03:04:20;23.50;;;10.32;;
79401;SDS011;68857;47.916;106.940;2024-03-22T03:06:47;25.85;;;8.63;;
79401;SDS011;68857;47.916;106.940;2024-03-22T03:09:14;25.90;;;9.07;;
79401;SDS011;68857;47.916;106.940;2024-03-22T03:11:40;24.45;;;7.00;;
79401;SDS011;68857;47.916;106.940;2024-03-22T03:14:07;22.83;;;6.97;;
79401;SDS011;68857;47.916;106.940;2024-03-22T03:16:33;16.45;;;6.82;;
79401;SDS011;68857;47.916;106.940;2024-03-22T03:19:00;19.60;;;7.28;;
79401;SDS011;68857;47.916;106.940;2024-03-22T03:21:27;15.25;;;6.95;;
79401;SDS011;68857;47.916;106.940;2024-03-22T03:23:53;16.45;;;6.00;;
79401;SDS011;68857;47.916;106.940;2024-03-22T03:26:20;18.65;;;5.70;;
79401;SDS011;68857;47.916;106.940;2024-03-22T03:28:47;17.70;;;6.15;;
79401;SDS011;68857;47.916;106.940;2024-03-22T03:31:13;17.10;;;6.18;;
79401;SDS011;68857;47.916;106.940;2024-03-22T03:33:40;13.55;;;5.30;;
79401;SDS011;68857;47.916;106.940;2024-03-22T03:36:06;14.63;;;5.35;;
79401;SDS011;68857;47.916;106.940;2024-03-22T03:38:33;13.23;;;5.68;;
79401;SDS011;68857;47.916;106.940;2024-03-22T03:41:03;9.63;;;4.50;;
79401;SDS011;68857;47.916;106.940;2024-03-22T03:43:29;13.50;;;4.50;;
79401;SDS011;68857;47.916;106.940;2024-03-22T03:45:56;11.63;;;4.40;;
79401;SDS011;68857;47.916;106.940;2024-03-22T03:48:22;12.75;;;4.22;;
79401;SDS011;68857;47.916;106.940;2024-03-22T03:50:53;10.55;;;4.50;;
79401;SDS011;68857;47.916;106.940;2024-03-22T03:53:20;11.60;;;3.45;;
79401;SDS011;68857;47.916;106.940;2024-03-22T03:55:47;8.80;;;3.67;;
79401;SDS011;68857;47.916;106.940;2024-03-22T03:58:14;9.88;;;3.35;;
79401;SDS011;68857;47.916;106.940;2024-03-22T04:00:43;8.10;;;3.33;;
79401;SDS011;68857;47.916;106.940;2024-03-22T04:03:10;12.68;;;4.13;;
79401;SDS011;68857;47.916;106.940;2024-03-22T04:05:36;14.60;;;3.75;;
79401;SDS011;68857;47.916;106.940;2024-03-22T04:08:03;8.15;;;3.40;;
79401;SDS011;68857;47.916;106.940;2024-03-22T04:10:30;11.75;;;3.17;;
79401;SDS011;68857;47.916;106.940;2024-03-22T04:12:57;9.95;;;3.03;;
79401;SDS011;68857;47.916;106.940;2024-03-22T04:15:23;8.55;;;3.05;;
79401;SDS011;68857;47.916;106.940;2024-03-22T04:17:50;9.05;;;2.75;;
79401;SDS011;68857;47.916;106.940;2024-03-22T04:20:17;13.20;;;3.20;;
79401;SDS011;68857;47.916;106.940;2024-03-22T04:22:44;13.32;;;3.22;;
79401;SDS011;68857;47.916;106.940;2024-03-22T04:25:10;8.10;;;2.88;;
79401;SDS011;68857;47.916;106.940;2024-03-22T04:27:37;10.35;;;3.03;;
79401;SDS011;68857;47.916;106.940;2024-03-22T04:30:05;18.15;;;4.07;;
79401;SDS011;68857;47.916;106.940;2024-03-22T04:32:31;13.93;;;3.35;;
79401;SDS011;68857;47.916;106.940;2024-03-22T04:34:58;14.27;;;3.38;;
79401;SDS011;68857;47.916;106.940;2024-03-22T04:37:25;14.02;;;3.58;;
79401;SDS011;68857;47.916;106.940;2024-03-22T04:39:52;14.32;;;3.33;;
79401;SDS011;68857;47.916;106.940;2024-03-22T04:42:18;10.80;;;2.90;;
79401;SDS011;68857;47.916;106.940;2024-03-22T04:44:45;9.70;;;3.22;;
79401;SDS011;68857;47.916;106.940;2024-03-22T04:47:12;12.40;;;2.90;;
79401;SDS011;68857;47.916;106.940;2024-03-22T04:49:38;11.20;;;3.35;;
79401;SDS011;68857;47.916;106.940;2024-03-22T04:52:06;11.00;;;2.70;;
79401;SDS011;68857;47.916;106.940;2024-03-22T04:54:33;7.28;;;2.08;;
79401;SDS011;68857;47.916;106.940;2024-03-22T04:56:59;7.80;;;2.95;;
79401;SDS011;68857;47.916;106.940;2024-03-22T04:59:26;8.52;;;2.42;;
79401;SDS011;68857;47.916;106.940;2024-03-22T05:01:53;6.75;;;2.33;;
79401;SDS011;68857;47.916;106.940;2024-03-22T05:04:20;8.10;;;2.65;;
79401;SDS011;68857;47.916;106.940;2024-03-22T05:06:46;6.88;;;2.13;;
79401;SDS011;68857;47.916;106.940;2024-03-22T05:09:13;9.68;;;2.03;;
79401;SDS011;68857;47.916;106.940;2024-03-22T05:11:40;11.82;;;2.50;;
79401;SDS011;68857;47.916;106.940;2024-03-22T05:14:06;11.77;;;2.47;;
79401;SDS011;68857;47.916;106.940;2024-03-22T05:16:33;12.02;;;3.25;;
79401;SDS011;68857;47.916;106.940;2024-03-22T05:19:00;8.82;;;2.70;;
79401;SDS011;68857;47.916;106.940;2024-03-22T05:21:27;9.70;;;2.80;;
79401;SDS011;68857;47.916;106.940;2024-03-22T05:23:53;13.52;;;3.17;;
79401;SDS011;68857;47.916;106.940;2024-03-22T05:26:20;16.13;;;3.30;;
79401;SDS011;68857;47.916;106.940;2024-03-22T05:28:48;13.35;;;2.72;;
79401;SDS011;68857;47.916;106.940;2024-03-22T05:31:14;10.07;;;2.85;;
79401;SDS011;68857;47.916;106.940;2024-03-22T05:33:41;13.05;;;3.10;;
79401;SDS011;68857;47.916;106.940;2024-03-22T05:36:08;16.95;;;3.63;;
79401;SDS011;68857;47.916;106.940;2024-03-22T05:38:34;13.75;;;2.65;;
79401;SDS011;68857;47.916;106.940;2024-03-22T05:41:04;13.80;;;3.03;;
79401;SDS011;68857;47.916;106.940;2024-03-22T05:43:31;13.27;;;3.00;;
79401;SDS011;68857;47.916;106.940;2024-03-22T05:45:58;14.60;;;3.05;;
79401;SDS011;68857;47.916;106.940;2024-03-22T05:48:24;12.80;;;2.55;;
79401;SDS011;68857;47.916;106.940;2024-03-22T05:50:51;13.15;;;2.38;;
79401;SDS011;68857;47.916;106.940;2024-03-22T05:53:18;12.23;;;2.63;;
79401;SDS011;68857;47.916;106.940;2024-03-22T05:55:44;12.60;;;3.05;;
79401;SDS011;68857;47.916;106.940;2024-03-22T05:58:11;12.23;;;3.20;;
79401;SDS011;68857;47.916;106.940;2024-03-22T06:00:38;10.50;;;2.40;;
79401;SDS011;68857;47.916;106.940;2024-03-22T06:03:04;12.07;;;3.72;;
79401;SDS011;68857;47.916;106.940;2024-03-22T06:05:33;14.20;;;2.65;;
79401;SDS011;68857;47.916;106.940;2024-03-22T06:08:00;11.93;;;2.97;;
79401;SDS011;68857;47.916;106.940;2024-03-22T06:10:26;12.20;;;2.85;;
79401;SDS011;68857;47.916;106.940;2024-03-22T06:12:53;15.85;;;3.58;;
79401;SDS011;68857;47.916;106.940;2024-03-22T06:15:20;12.73;;;2.83;;
79401;SDS011;68857;47.916;106.940;2024-03-22T06:17:47;11.30;;;2.40;;
79401;SDS011;68857;47.916;106.940;2024-03-22T06:20:13;9.85;;;2.92;;
79401;SDS011;68857;47.916;106.940;2024-03-22T06:22:40;13.98;;;2.78;;
79401;SDS011;68857;47.916;106.940;2024-03-22T06:25:07;12.18;;;2.70;;
79401;SDS011;68857;47.916;106.940;2024-03-22T06:27:33;8.50;;;2.17;;
79401;SDS011;68857;47.916;106.940;2024-03-22T06:30:00;14.18;;;2.75;;
79401;SDS011;68857;47.916;106.940;2024-03-22T06:32:28;10.10;;;2.25;;
79401;SDS011;68857;47.916;106.940;2024-03-22T06:34:55;10.50;;;3.05;;
79401;SDS011;68857;47.916;106.940;2024-03-22T06:37:22;8.32;;;2.80;;
79401;SDS011;68857;47.916;106.940;2024-03-22T06:39:48;8.63;;;2.45;;
79401;SDS011;68857;47.916;106.940;2024-03-22T06:42:15;10.52;;;1.88;;
79401;SDS011;68857;47.916;106.940;2024-03-22T06:44:42;9.60;;;2.55;;
79401;SDS011;68857;47.916;106.940;2024-03-22T06:47:08;10.07;;;2.30;;
79401;SDS011;68857;47.916;106.940;2024-03-22T06:49:35;9.15;;;2.28;;
79401;SDS011;68857;47.916;106.940;2024-03-22T06:52:02;10.82;;;3.42;;
79401;SDS011;68857;47.916;106.940;2024-03-22T06:54:29;13.02;;;2.28;;
79401;SDS011;68857;47.916;106.940;2024-03-22T06:56:56;10.35;;;2.05;;
79401;SDS011;68857;47.916;106.940;2024-03-22T06:59:22;11.27;;;3.42;;
79401;SDS011;68857;47.916;106.940;2024-03-22T07:01:49;9.07;;;2.03;;
79401;SDS011;68857;47.916;106.940;2024-03-22T07:04:16;5.60;;;2.33;;
79401;SDS011;68857;47.916;106.940;2024-03-22T07:06:42;9.35;;;1.95;;
79401;SDS011;68857;47.916;106.940;2024-03-22T07:09:09;8.88;;;1.80;;
79401;SDS011;68857;47.916;106.940;2024-03-22T07:11:36;11.30;;;1.92;;
79401;SDS011;68857;47.916;106.940;2024-03-22T07:14:03;14.20;;;2.45;;
79401;SDS011;68857;47.916;106.940;2024-03-22T07:16:30;6.85;;;1.92;;
79401;SDS011;68857;47.916;106.940;2024-03-22T07:18:56;9.15;;;1.80;;
79401;SDS011;68857;47.916;106.940;2024-03-22T07:21:23;9.57;;;2.28;;
79401;SDS011;68857;47.916;106.940;2024-03-22T07:23:50;12.98;;;2.28;;
79401;SDS011;68857;47.916;106.940;2024-03-22T07:26:16;9.85;;;2.03;;
79401;SDS011;68857;47.916;106.940;2024-03-22T07:28:43;8.75;;;2.53;;
79401;SDS011;68857;47.916;106.940;2024-03-22T07:31:09;13.38;;;2.00;;
79401;SDS011;68857;47.916;106.940;2024-03-22T07:33:36;14.20;;;2.40;;
79401;SDS011;68857;47.916;106.940;2024-03-22T07:36:04;7.18;;;2.22;;
79401;SDS011;68857;47.916;106.940;2024-03-22T07:38:31;10.68;;;2.22;;
79401;SDS011;68857;47.916;106.940;2024-03-22T07:40:58;11.00;;;2.35;;
79401;SDS011;68857;47.916;106.940;2024-03-22T07:43:25;9.02;;;2.75;;
79401;SDS011;68857;47.916;106.940;2024-03-22T07:45:52;12.07;;;2.10;;
79401;SDS011;68857;47.916;106.940;2024-03-22T07:48:19;13.35;;;2.25;;
79401;SDS011;68857;47.916;106.940;2024-03-22T07:50:46;10.60;;;2.20;;
79401;SDS011;68857;47.916;106.940;2024-03-22T07:53:12;13.07;;;1.98;;
79401;SDS011;68857;47.916;106.940;2024-03-22T07:55:39;10.38;;;2.50;;
79401;SDS011;68857;47.916;106.940;2024-03-22T07:58:06;14.82;;;2.42;;
79401;SDS011;68857;47.916;106.940;2024-03-22T08:00:32;9.75;;;3.25;;
79401;SDS011;68857;47.916;106.940;2024-03-22T08:02:59;12.02;;;2.50;;
79401;SDS011;68857;47.916;106.940;2024-03-22T08:05:25;10.75;;;2.45;;
79401;SDS011;68857;47.916;106.940;2024-03-22T08:07:52;13.02;;;1.98;;
79401;SDS011;68857;47.916;106.940;2024-03-22T08:10:19;8.88;;;1.83;;
79401;SDS011;68857;47.916;106.940;2024-03-22T08:12:46;8.70;;;2.00;;
79401;SDS011;68857;47.916;106.940;2024-03-22T08:15:12;12.90;;;2.20;;
79401;SDS011;68857;47.916;106.940;2024-03-22T08:17:39;11.95;;;1.90;;
79401;SDS011;68857;47.916;106.940;2024-03-22T08:20:06;8.30;;;1.88;;
79401;SDS011;68857;47.916;106.940;2024-03-22T08:22:32;7.57;;;2.00;;
79401;SDS011;68857;47.916;106.940;2024-03-22T08:24:59;6.35;;;1.75;;
79401;SDS011;68857;47.916;106.940;2024-03-22T08:27:27;11.88;;;1.65;;
79401;SDS011;68857;47.916;106.940;2024-03-22T08:29:54;11.02;;;2.20;;
79401;SDS011;68857;47.916;106.940;2024-03-22T08:32:20;9.80;;;1.92;;
79401;SDS011;68857;47.916;106.940;2024-03-22T08:34:47;9.63;;;1.80;;
79401;SDS011;68857;47.916;106.940;2024-03-22T08:37:14;14.02;;;2.28;;
79401;SDS011;68857;47.916;106.940;2024-03-22T08:39:40;7.75;;;2.15;;
79401;SDS011;68857;47.916;106.940;2024-03-22T08:42:07;9.88;;;2.55;;
79401;SDS011;68857;47.916;106.940;2024-03-22T08:44:35;10.48;;;2.22;;
79401;SDS011;68857;47.916;106.940;2024-03-22T08:47:01;13.60;;;2.80;;
79401;SDS011;68857;47.916;106.940;2024-03-22T08:49:28;15.10;;;2.60;;
79401;SDS011;68857;47.916;106.940;2024-03-22T08:51:55;13.43;;;3.55;;
79401;SDS011;68857;47.916;106.940;2024-03-22T08:54:22;12.27;;;2.90;;
79401;SDS011;68857;47.916;106.940;2024-03-22T08:56:48;16.92;;;3.25;;
79401;SDS011;68857;47.916;106.940;2024-03-22T08:59:15;16.35;;;2.85;;
79401;SDS011;68857;47.916;106.940;2024-03-22T09:01:42;15.50;;;3.22;;
79401;SDS011;68857;47.916;106.940;2024-03-22T09:04:08;15.60;;;3.50;;
79401;SDS011;68857;47.916;106.940;2024-03-22T09:06:35;16.23;;;2.67;;
79401;SDS011;68857;47.916;106.940;2024-03-22T09:09:02;14.85;;;3.78;;
79401;SDS011;68857;47.916;106.940;2024-03-22T09:11:28;13.55;;;3.10;;
79401;SDS011;68857;47.916;106.940;2024-03-22T09:13:55;12.35;;;2.70;;
79401;SDS011;68857;47.916;106.940;2024-03-22T09:16:22;15.45;;;3.80;;
79401;SDS011;68857;47.916;106.940;2024-03-22T09:18:49;14.98;;;2.88;;
79401;SDS011;68857;47.916;106.940;2024-03-22T09:21:16;17.25;;;4.07;;
79401;SDS011;68857;47.916;106.940;2024-03-22T09:23:43;14.43;;;2.88;;
79401;SDS011;68857;47.916;106.940;2024-03-22T09:26:10;16.73;;;3.30;;
79401;SDS011;68857;47.916;106.940;2024-03-22T09:28:36;14.75;;;3.58;;
79401;SDS011;68857;47.916;106.940;2024-03-22T09:31:04;13.23;;;2.63;;
79401;SDS011;68857;47.916;106.940;2024-03-22T09:33:32;11.05;;;2.97;;
79401;SDS011;68857;47.916;106.940;2024-03-22T09:35:58;13.75;;;2.35;;
79401;SDS011;68857;47.916;106.940;2024-03-22T09:38:25;9.05;;;1.88;;
79401;SDS011;68857;47.916;106.940;2024-03-22T09:40:51;14.00;;;3.33;;
79401;SDS011;68857;47.916;106.940;2024-03-22T09:43:20;9.23;;;1.90;;
79401;SDS011;68857;47.916;106.940;2024-03-22T09:45:47;11.00;;;2.40;;
79401;SDS011;68857;47.916;106.940;2024-03-22T09:48:18;10.68;;;3.28;;
79401;SDS011;68857;47.916;106.940;2024-03-22T09:50:48;7.80;;;2.40;;
79401;SDS011;68857;47.916;106.940;2024-03-22T09:53:18;8.13;;;2.28;;
79401;SDS011;68857;47.916;106.940;2024-03-22T09:55:46;12.68;;;2.22;;
79401;SDS011;68857;47.916;106.940;2024-03-22T09:58:13;10.15;;;2.88;;
79401;SDS011;68857;47.916;106.940;2024-03-22T10:00:42;10.07;;;1.88;;
79401;SDS011;68857;47.916;106.940;2024-03-22T10:03:09;10.02;;;2.30;;
79401;SDS011;68857;47.916;106.940;2024-03-22T10:05:36;8.88;;;2.05;;
79401;SDS011;68857;47.916;106.940;2024-03-22T10:08:05;7.20;;;1.77;;
79401;SDS011;68857;47.916;106.940;2024-03-22T10:10:32;8.10;;;1.95;;
79401;SDS011;68857;47.916;106.940;2024-03-22T10:13:03;13.30;;;2.53;;
79401;SDS011;68857;47.916;106.940;2024-03-22T10:15:33;7.97;;;1.73;;
79401;SDS011;68857;47.916;106.940;2024-03-22T10:17:59;8.75;;;2.80;;
79401;SDS011;68857;47.916;106.940;2024-03-22T10:20:26;7.07;;;1.50;;
79401;SDS011;68857;47.916;106.940;2024-03-22T10:22:57;9.43;;;1.90;;
79401;SDS011;68857;47.916;106.940;2024-03-22T10:25:27;6.32;;;2.15;;
79401;SDS011;68857;47.916;106.940;2024-03-22T10:27:57;8.13;;;2.00;;
79401;SDS011;68857;47.916;106.940;2024-03-22T10:30:25;4.85;;;1.60;;
79401;SDS011;68857;47.916;106.940;2024-03-22T10:32:52;7.05;;;1.83;;
79401;SDS011;68857;47.916;106.940;2024-03-22T10:35:19;7.60;;;1.67;;
79401;SDS011;68857;47.916;106.940;2024-03-22T10:37:45;9.57;;;2.40;;
79401;SDS011;68857;47.916;106.940;2024-03-22T10:40:12;6.60;;;2.38;;
79401;SDS011;68857;47.916;106.940;2024-03-22T10:42:40;5.70;;;1.65;;
79401;SDS011;68857;47.916;106.940;2024-03-22T10:45:10;10.15;;;1.50;;
79401;SDS011;68857;47.916;106.940;2024-03-22T10:47:36;7.85;;;2.20;;
79401;SDS011;68857;47.916;106.940;2024-03-22T10:50:07;9.27;;;1.63;;
79401;SDS011;68857;47.916;106.940;2024-03-22T10:52:54;6.85;;;1.70;;
79401;SDS011;68857;47.916;106.940;2024-03-22T10:55:27;8.15;;;2.47;;
79401;SDS011;68857;47.916;106.940;2024-03-22T10:57:56;10.85;;;1.77;;
79401;SDS011;68857;47.916;106.940;2024-03-22T11:00:30;8.30;;;2.80;;
79401;SDS011;68857;47.916;106.940;2024-03-22T11:02:56;6.18;;;1.58;;
79401;SDS011;68857;47.916;106.940;2024-03-22T11:05:25;8.25;;;1.98;;
79401;SDS011;68857;47.916;106.940;2024-03-22T11:07:59;6.32;;;1.55;;
79401;SDS011;68857;47.916;106.940;2024-03-22T11:10:28;9.90;;;1.80;;
79401;SDS011;68857;47.916;106.940;2024-03-22T11:13:01;8.35;;;1.90;;
79401;SDS011;68857;47.916;106.940;2024-03-22T11:15:31;8.27;;;2.65;;
79401;SDS011;68857;47.916;106.940;2024-03-22T11:17:58;8.07;;;2.75;;
79401;SDS011;68857;47.916;106.940;2024-03-22T11:20:28;8.98;;;2.63;;
79401;SDS011;68857;47.916;106.940;2024-03-22T11:22:58;9.38;;;1.98;;
79401;SDS011;68857;47.916;106.940;2024-03-22T11:25:25;9.98;;;2.10;;
79401;SDS011;68857;47.916;106.940;2024-03-22T11:27:52;7.80;;;2.85;;
79401;SDS011;68857;47.916;106.940;2024-03-22T11:30:20;8.38;;;2.00;;
79401;SDS011;68857;47.916;106.940;2024-03-22T11:32:47;11.27;;;3.50;;
79401;SDS011;68857;47.916;106.940;2024-03-22T11:35:14;10.38;;;2.55;;
79401;SDS011;68857;47.916;106.940;2024-03-22T11:37:41;9.32;;;3.05;;
79401;SDS011;68857;47.916;106.940;2024-03-22T11:40:11;13.27;;;3.80;;
79401;SDS011;68857;47.916;106.940;2024-03-22T11:42:41;10.93;;;3.83;;
79401;SDS011;68857;47.916;106.940;2024-03-22T11:45:10;10.75;;;3.20;;
79401;SDS011;68857;47.916;106.940;2024-03-22T11:47:37;10.25;;;3.72;;
79401;SDS011;68857;47.916;106.940;2024-03-22T11:50:04;11.23;;;3.17;;
79401;SDS011;68857;47.916;106.940;2024-03-22T11:52:31;8.20;;;2.85;;
79401;SDS011;68857;47.916;106.940;2024-03-22T11:54:58;10.05;;;2.97;;
79401;SDS011;68857;47.916;106.940;2024-03-22T11:57:25;11.07;;;3.67;;
79401;SDS011;68857;47.916;106.940;2024-03-22T11:59:51;6.97;;;2.45;;
79401;SDS011;68857;47.916;106.940;2024-03-22T12:02:18;10.35;;;2.80;;
79401;SDS011;68857;47.916;106.940;2024-03-22T12:04:45;6.72;;;2.17;;
79401;SDS011;68857;47.916;106.940;2024-03-22T12:07:15;6.03;;;2.60;;
79401;SDS011;68857;47.916;106.940;2024-03-22T12:09:45;11.90;;;3.80;;
79401;SDS011;68857;47.916;106.940;2024-03-22T12:12:12;5.93;;;2.53;;
79401;SDS011;68857;47.916;106.940;2024-03-22T12:14:39;6.35;;;1.90;;
79401;SDS011;68857;47.916;106.940;2024-03-22T12:17:06;5.15;;;2.10;;
79401;SDS011;68857;47.916;106.940;2024-03-22T12:19:33;8.32;;;2.10;;
79401;SDS011;68857;47.916;106.940;2024-03-22T12:22:00;10.27;;;1.98;;
79401;SDS011;68857;47.916;106.940;2024-03-22T12:24:27;6.95;;;2.63;;
79401;SDS011;68857;47.916;106.940;2024-03-22T12:26:53;5.53;;;1.98;;
79401;SDS011;68857;47.916;106.940;2024-03-22T12:29:20;7.05;;;2.38;;
79401;SDS011;68857;47.916;106.940;2024-03-22T12:31:47;6.68;;;2.38;;
79401;SDS011;68857;47.916;106.940;2024-03-22T12:34:14;8.10;;;3.30;;
79401;SDS011;68857;47.916;106.940;2024-03-22T12:36:40;13.73;;;3.65;;
79401;SDS011;68857;47.916;106.940;2024-03-22T12:39:07;11.98;;;3.83;;
79401;SDS011;68857;47.916;106.940;2024-03-22T12:41:34;12.07;;;5.93;;
79401;SDS011;68857;47.916;106.940;2024-03-22T12:44:01;18.70;;;8.18;;
79401;SDS011;68857;47.916;106.940;2024-03-22T12:46:28;21.30;;;10.38;;
79401;SDS011;68857;47.916;106.940;2024-03-22T12:48:55;25.25;;;12.55;;
79401;SDS011;68857;47.916;106.940;2024-03-22T12:51:22;35.10;;;15.18;;
79401;SDS011;68857;47.916;106.940;2024-03-22T12:53:49;38.65;;;17.35;;
79401;SDS011;68857;47.916;106.940;2024-03-22T12:56:15;38.78;;;19.35;;
79401;SDS011;68857;47.916;106.940;2024-03-22T12:58:42;43.55;;;19.70;;
79401;SDS011;68857;47.916;106.940;2024-03-22T13:01:09;44.50;;;19.20;;
79401;SDS011;68857;47.916;106.940;2024-03-22T13:03:36;41.97;;;19.88;;
79401;SDS011;68857;47.916;106.940;2024-03-22T13:06:03;41.28;;;19.95;;
79401;SDS011;68857;47.916;106.940;2024-03-22T13:08:33;45.25;;;19.55;;
79401;SDS011;68857;47.916;106.940;2024-03-22T13:10:59;43.80;;;19.98;;
79401;SDS011;68857;47.916;106.940;2024-03-22T13:13:26;44.28;;;19.83;;
79401;SDS011;68857;47.916;106.940;2024-03-22T13:15:56;47.60;;;19.55;;
79401;SDS011;68857;47.916;106.940;2024-03-22T13:18:22;44.22;;;19.17;;
79401;SDS011;68857;47.916;106.940;2024-03-22T13:20:49;40.08;;;18.08;;
79401;SDS011;68857;47.916;106.940;2024-03-22T13:23:16;41.13;;;17.50;;
79401;SDS011;68857;47.916;106.940;2024-03-22T13:25:42;37.30;;;16.02;;
79401;SDS011;68857;47.916;106.940;2024-03-22T13:28:09;34.78;;;14.80;;
79401;SDS011;68857;47.916;106.940;2024-03-22T13:30:35;32.58;;;14.57;;
79401;SDS011;68857;47.916;106.940;2024-03-22T13:33:03;34.67;;;16.00;;
79401;SDS011;68857;47.916;106.940;2024-03-22T13:35:29;36.33;;;17.45;;
79401;SDS011;68857;47.916;106.940;2024-03-22T13:37:58;36.25;;;16.00;;
79401;SDS011;68857;47.916;106.940;2024-03-22T13:40:26;34.80;;;16.02;;
79401;SDS011;68857;47.916;106.940;2024-03-22T13:42:53;40.00;;;15.90;;
79401;SDS011;68857;47.916;106.940;2024-03-22T13:45:20;38.55;;;17.17;;
79401;SDS011;68857;47.916;106.940;2024-03-22T13:47:47;36.70;;;15.75;;
79401;SDS011;68857;47.916;106.940;2024-03-22T13:50:14;34.75;;;14.35;;
79401;SDS011;68857;47.916;106.940;2024-03-22T13:52:40;31.98;;;12.75;;
79401;SDS011;68857;47.916;106.940;2024-03-22T13:55:07;29.00;;;11.90;;
79401;SDS011;68857;47.916;106.940;2024-03-22T13:57:33;30.90;;;11.48;;
79401;SDS011;68857;47.916;106.940;2024-03-22T14:00:00;25.45;;;10.98;;
79401;SDS011;68857;47.916;106.940;2024-03-22T14:02:32;29.08;;;11.40;;
79401;SDS011;68857;47.916;106.940;2024-03-22T14:04:58;25.20;;;10.25;;
79401;SDS011;68857;47.916;106.940;2024-03-22T14:07:25;29.13;;;11.43;;
79401;SDS011;68857;47.916;106.940;2024-03-22T14:09:52;28.48;;;12.18;;
79401;SDS011;68857;47.916;106.940;2024-03-22T14:12:19;30.40;;;12.07;;
79401;SDS011;68857;47.916;106.940;2024-03-22T14:14:46;31.17;;;12.15;;
79401;SDS011;68857;47.916;106.940;2024-03-22T14:17:12;32.63;;;13.98;;
79401;SDS011;68857;47.916;106.940;2024-03-22T14:19:39;32.03;;;13.75;;
79401;SDS011;68857;47.916;106.940;2024-03-22T14:22:06;37.17;;;14.18;;
79401;SDS011;68857;47.916;106.940;2024-03-22T14:24:33;31.77;;;14.00;;
79401;SDS011;68857;47.916;106.940;2024-03-22T14:26:59;34.60;;;13.93;;
79401;SDS011;68857;47.916;106.940;2024-03-22T14:29:26;32.53;;;14.18;;
79401;SDS011;68857;47.916;106.940;2024-03-22T14:31:53;35.72;;;13.90;;